This is the latest recevied weather packets stored in our database for station/object NR5ON-13. If no packets are shown the sender has not sent any weather packets the latest 1 day(s).
| Time | Temp. | Humidity | Pressure | Rain* | Wind** | Luminosity | Snow |
|---|---|---|---|---|---|---|---|
| 1778015322 | 15° C | 43% | 1012.4 hPa | 0 mm | 2.24 m/s, 212° | - | - |
| 1778015006 | 15° C | 44% | 1012.4 hPa | 0 mm | 2.24 m/s, 257° | - | - |
| 1778014712 | 15° C | 44% | 1012.4 hPa | 0 mm | 1.79 m/s, 207° | - | - |
| 1778014404 | 14.44° C | 45% | 1012.5 hPa | 0 mm | 3.13 m/s, 211° | - | - |
| 1778014113 | 14.44° C | 47% | 1012.8 hPa | 0 mm | 1.79 m/s, 270° | - | - |
| 1778013818 | 14.44° C | 45% | 1012.8 hPa | 0 mm | 2.68 m/s, 181° | - | - |
| 1778013506 | 15° C | 43% | 1013 hPa | 0 mm | 2.24 m/s, 231° | - | - |
| 1778013211 | 15° C | 44% | 1013.1 hPa | 0 mm | 0.45 m/s, 221° | - | - |
| 1778012917 | 15° C | 45% | 1013.1 hPa | 0 mm | 1.79 m/s, 284° | - | - |
| 1778012603 | 15° C | 45% | 1013.3 hPa | 0 mm | 1.79 m/s, 209° | - | - |
| 1778012311 | 14.44° C | 46% | 1013.3 hPa | 0 mm | 1.79 m/s, 199° | - | - |
| 1778012016 | 14.44° C | 48% | 1013.3 hPa | 0 mm | 1.79 m/s, 211° | - | - |
| 1778011705 | 13.89° C | 49% | 1013.2 hPa | 0 mm | 1.79 m/s, 280° | - | - |
| 1778011410 | 13.33° C | 50% | 1013.2 hPa | 0 mm | 1.79 m/s, 182° | - | - |
| 1778011115 | 12.78° C | 51% | 1013.2 hPa | 0 mm | 2.24 m/s, 294° | - | - |
| 1778010821 | 12.78° C | 52% | 1013.2 hPa | 0 mm | 2.24 m/s, 249° | - | - |
| 1778010506 | 12.78° C | 52% | 1013.1 hPa | 0 mm | 2.24 m/s, 247° | - | - |
| 1778010214 | 12.78° C | 55% | 1013.2 hPa | 0 mm | 2.24 m/s, 202° | - | - |
| 1778009920 | 13.33° C | 50% | 1013.4 hPa | 0 mm | 1.79 m/s, 249° | - | - |
| 1778009608 | 13.89° C | 48% | 1013.1 hPa | 0 mm | 0.89 m/s, 246° | - | - |
| 1778009316 | 13.89° C | 48% | 1013.1 hPa | 0 mm | 1.79 m/s, 223° | - | - |
| 1778009021 | 13.89° C | 47% | 1013.2 hPa | 0 mm | 1.34 m/s, 248° | - | - |
| 1778008711 | 13.89° C | 48% | 1013.2 hPa | 0 mm | 1.79 m/s, 232° | - | - |
| 1778008416 | 13.89° C | 48% | 1013.2 hPa | 0 mm | 0.89 m/s, 208° | - | - |
| 1778008121 | 13.33° C | 51% | 1013.2 hPa | 0 mm | 0.89 m/s, 242° | - | - |
* Rain latest hour (hover to see other rain measurements)
** Current wind speed in m/s (hover to see current wind gust speed)